sensor_id;sensor_type;location;lat;lon;timestamp;pressure;altitude;pressure_sealevel;temperature;humidity
12781;BME280;6454;43.304;24.344;2022-07-01T00:00:44;99998.75;;;22.30;71.10
12781;BME280;6454;43.304;24.344;2022-07-01T00:03:11;100003.88;;;22.32;70.82
12781;BME280;6454;43.304;24.344;2022-07-01T00:05:38;99997.94;;;22.30;71.18
12781;BME280;6454;43.304;24.344;2022-07-01T00:08:05;99995.19;;;22.30;71.17
12781;BME280;6454;43.304;24.344;2022-07-01T00:10:34;100008.88;;;22.23;71.69
12781;BME280;6454;43.304;24.344;2022-07-01T00:13:03;100012.06;;;22.25;71.42
12781;BME280;6454;43.304;24.344;2022-07-01T00:15:32;100015.25;;;22.27;71.57
12781;BME280;6454;43.304;24.344;2022-07-01T00:17:58;100016.91;;;22.31;71.38
12781;BME280;6454;43.304;24.344;2022-07-01T00:20:26;100007.84;;;22.31;71.41
12781;BME280;6454;43.304;24.344;2022-07-01T00:22:52;100008.56;;;22.28;71.53
12781;BME280;6454;43.304;24.344;2022-07-01T00:25:19;100024.34;;;22.27;71.86
12781;BME280;6454;43.304;24.344;2022-07-01T00:27:48;100017.59;;;22.25;72.15
12781;BME280;6454;43.304;24.344;2022-07-01T00:30:15;100008.56;;;22.28;71.94
12781;BME280;6454;43.304;24.344;2022-07-01T00:32:42;100006.47;;;22.21;72.32
12781;BME280;6454;43.304;24.344;2022-07-01T00:35:09;100005.47;;;22.10;72.69
12781;BME280;6454;43.304;24.344;2022-07-01T00:37:38;100015.34;;;22.11;73.02
12781;BME280;6454;43.304;24.344;2022-07-01T00:40:06;100012.53;;;22.08;73.37
12781;BME280;6454;43.304;24.344;2022-07-01T00:42:38;99998.00;;;21.92;73.75
12781;BME280;6454;43.304;24.344;2022-07-01T00:45:08;100006.31;;;21.92;74.04
12781;BME280;6454;43.304;24.344;2022-07-01T00:47:36;99989.31;;;21.70;74.73
12781;BME280;6454;43.304;24.344;2022-07-01T00:50:05;100001.94;;;21.71;74.81
12781;BME280;6454;43.304;24.344;2022-07-01T00:52:33;99999.41;;;21.63;75.07
12781;BME280;6454;43.304;24.344;2022-07-01T00:55:02;100004.84;;;21.59;75.15
12781;BME280;6454;43.304;24.344;2022-07-01T00:57:30;99996.94;;;21.58;75.27
12781;BME280;6454;43.304;24.344;2022-07-01T00:59:58;100001.22;;;21.55;75.42
12781;BME280;6454;43.304;24.344;2022-07-01T01:02:26;99995.63;;;21.52;75.22
12781;BME280;6454;43.304;24.344;2022-07-01T01:04:53;100000.34;;;21.51;75.23
12781;BME280;6454;43.304;24.344;2022-07-01T01:07:20;100001.41;;;21.47;75.25
12781;BME280;6454;43.304;24.344;2022-07-01T01:09:47;100000.66;;;21.46;75.66
12781;BME280;6454;43.304;24.344;2022-07-01T01:12:14;100000.19;;;21.44;75.71
12781;BME280;6454;43.304;24.344;2022-07-01T01:14:44;100009.56;;;21.40;75.71
12781;BME280;6454;43.304;24.344;2022-07-01T01:17:11;100003.16;;;21.36;75.39
12781;BME280;6454;43.304;24.344;2022-07-01T01:19:40;99999.53;;;21.32;75.89
12781;BME280;6454;43.304;24.344;2022-07-01T01:22:09;99992.41;;;21.31;76.14
12781;BME280;6454;43.304;24.344;2022-07-01T01:24:36;99999.66;;;21.19;76.71
12781;BME280;6454;43.304;24.344;2022-07-01T01:27:03;99991.66;;;21.14;76.80
12781;BME280;6454;43.304;24.344;2022-07-01T01:29:31;99995.94;;;21.12;76.99
12781;BME280;6454;43.304;24.344;2022-07-01T01:31:58;100003.22;;;21.04;77.44
12781;BME280;6454;43.304;24.344;2022-07-01T01:34:25;100006.25;;;20.99;77.29
12781;BME280;6454;43.304;24.344;2022-07-01T01:36:52;100008.56;;;20.97;77.24
12781;BME280;6454;43.304;24.344;2022-07-01T01:39:20;100005.38;;;20.95;77.27
12781;BME280;6454;43.304;24.344;2022-07-01T01:41:47;100006.47;;;20.91;77.65
12781;BME280;6454;43.304;24.344;2022-07-01T01:44:14;100012.53;;;20.81;77.62
12781;BME280;6454;43.304;24.344;2022-07-01T01:46:40;100012.00;;;20.75;78.10
12781;BME280;6454;43.304;24.344;2022-07-01T01:49:08;99982.22;;;20.49;78.52
12781;BME280;6454;43.304;24.344;2022-07-01T01:51:36;100023.19;;;20.67;78.29
12781;BME280;6454;43.304;24.344;2022-07-01T01:54:03;100031.28;;;20.60;78.27
12781;BME280;6454;43.304;24.344;2022-07-01T01:56:32;100035.22;;;20.59;78.81
12781;BME280;6454;43.304;24.344;2022-07-01T01:58:59;100036.63;;;20.52;79.20
12781;BME280;6454;43.304;24.344;2022-07-01T02:01:26;100036.72;;;20.56;79.21
12781;BME280;6454;43.304;24.344;2022-07-01T02:03:53;100031.81;;;20.49;79.50
12781;BME280;6454;43.304;24.344;2022-07-01T02:06:22;100003.63;;;20.25;80.07
12781;BME280;6454;43.304;24.344;2022-07-01T02:08:49;100040.44;;;20.48;80.09
12781;BME280;6454;43.304;24.344;2022-07-01T02:11:16;100042.41;;;20.47;79.86
12781;BME280;6454;43.304;24.344;2022-07-01T02:13:44;100045.53;;;20.46;79.29
12781;BME280;6454;43.304;24.344;2022-07-01T02:16:11;100046.06;;;20.36;80.08
12781;BME280;6454;43.304;24.344;2022-07-01T02:18:38;100050.31;;;20.33;79.87
12781;BME280;6454;43.304;24.344;2022-07-01T02:21:05;100048.25;;;20.30;80.04
12781;BME280;6454;43.304;24.344;2022-07-01T02:23:32;100054.19;;;20.32;80.02
12781;BME280;6454;43.304;24.344;2022-07-01T02:25:59;100049.50;;;20.33;79.32
12781;BME280;6454;43.304;24.344;2022-07-01T02:28:26;100048.50;;;20.25;79.73
12781;BME280;6454;43.304;24.344;2022-07-01T02:30:54;100047.81;;;20.28;79.92
12781;BME280;6454;43.304;24.344;2022-07-01T02:33:21;100059.41;;;20.22;80.56
12781;BME280;6454;43.304;24.344;2022-07-01T02:35:48;100054.25;;;20.20;80.81
12781;BME280;6454;43.304;24.344;2022-07-01T02:38:15;100062.31;;;20.13;81.16
12781;BME280;6454;43.304;24.344;2022-07-01T02:40:42;100065.06;;;20.13;81.13
12781;BME280;6454;43.304;24.344;2022-07-01T02:43:09;100058.50;;;20.18;80.90
12781;BME280;6454;43.304;24.344;2022-07-01T02:45:37;100021.16;;;19.89;80.93
12781;BME280;6454;43.304;24.344;2022-07-01T02:48:05;100061.63;;;20.16;80.55
12781;BME280;6454;43.304;24.344;2022-07-01T02:50:32;100069.88;;;20.16;80.41
12781;BME280;6454;43.304;24.344;2022-07-01T02:52:59;100067.84;;;20.13;80.37
12781;BME280;6454;43.304;24.344;2022-07-01T08:27:33;100155.94;;;32.07;41.46
12781;BME280;6454;43.304;24.344;2022-07-01T08:29:59;100155.13;;;32.07;42.07
12781;BME280;6454;43.304;24.344;2022-07-01T08:32:26;100153.63;;;32.22;41.22
12781;BME280;6454;43.304;24.344;2022-07-01T08:34:54;100150.91;;;32.18;41.03
12781;BME280;6454;43.304;24.344;2022-07-01T08:37:21;100146.81;;;32.03;41.51
12781;BME280;6454;43.304;24.344;2022-07-01T08:39:48;100158.72;;;32.07;39.93
12781;BME280;6454;43.304;24.344;2022-07-01T08:42:14;100154.56;;;32.15;39.38
12781;BME280;6454;43.304;24.344;2022-07-01T08:44:43;100156.06;;;32.20;39.05
12781;BME280;6454;43.304;24.344;2022-07-01T08:47:11;100159.72;;;32.36;39.53
12781;BME280;6454;43.304;24.344;2022-07-01T08:49:38;100159.50;;;32.47;39.73
12781;BME280;6454;43.304;24.344;2022-07-01T08:52:05;100166.25;;;32.49;39.42
12781;BME280;6454;43.304;24.344;2022-07-01T08:54:34;100163.75;;;32.55;39.47
12781;BME280;6454;43.304;24.344;2022-07-01T08:57:03;100161.66;;;32.59;38.06
12781;BME280;6454;43.304;24.344;2022-07-01T08:59:30;100163.59;;;32.62;40.29
12781;BME280;6454;43.304;24.344;2022-07-01T09:02:00;100166.88;;;32.77;39.41
12781;BME280;6454;43.304;24.344;2022-07-01T09:04:27;100159.06;;;32.84;39.75
12781;BME280;6454;43.304;24.344;2022-07-01T09:07:02;100173.66;;;32.95;38.37
12781;BME280;6454;43.304;24.344;2022-07-01T09:09:34;100161.75;;;33.07;37.24
12781;BME280;6454;43.304;24.344;2022-07-01T09:12:02;100156.13;;;33.24;36.75
12781;BME280;6454;43.304;24.344;2022-07-01T09:14:31;100149.19;;;33.28;36.85
12781;BME280;6454;43.304;24.344;2022-07-01T09:17:01;100157.69;;;33.41;38.32
12781;BME280;6454;43.304;24.344;2022-07-01T09:19:30;100151.19;;;33.60;37.76
12781;BME280;6454;43.304;24.344;2022-07-01T09:21:59;100153.53;;;33.78;38.17
12781;BME280;6454;43.304;24.344;2022-07-01T09:24:28;100160.91;;;33.88;38.04
12781;BME280;6454;43.304;24.344;2022-07-01T09:26:57;100155.25;;;33.88;37.99
12781;BME280;6454;43.304;24.344;2022-07-01T09:29:29;100153.41;;;33.81;37.74
12781;BME280;6454;43.304;24.344;2022-07-01T09:32:01;100152.63;;;33.81;38.04
12781;BME280;6454;43.304;24.344;2022-07-01T09:34:32;100145.19;;;33.74;37.69
12781;BME280;6454;43.304;24.344;2022-07-01T09:36:59;100133.25;;;33.70;38.17
12781;BME280;6454;43.304;24.344;2022-07-01T09:39:26;100144.28;;;33.77;37.48
12781;BME280;6454;43.304;24.344;2022-07-01T09:41:57;100143.09;;;33.91;37.91
12781;BME280;6454;43.304;24.344;2022-07-01T09:44:24;100142.53;;;33.96;36.84
12781;BME280;6454;43.304;24.344;2022-07-01T09:46:56;100148.38;;;34.05;38.58
12781;BME280;6454;43.304;24.344;2022-07-01T09:49:24;100144.88;;;34.13;36.95
12781;BME280;6454;43.304;24.344;2022-07-01T09:51:51;100138.94;;;34.24;35.80
12781;BME280;6454;43.304;24.344;2022-07-01T09:54:19;100137.16;;;34.30;35.29
12781;BME280;6454;43.304;24.344;2022-07-01T09:56:46;100132.88;;;34.38;34.82
12781;BME280;6454;43.304;24.344;2022-07-01T09:59:13;100131.00;;;34.48;34.72
12781;BME280;6454;43.304;24.344;2022-07-01T10:01:40;100136.22;;;34.62;35.86
12781;BME280;6454;43.304;24.344;2022-07-01T10:04:09;100123.91;;;34.68;34.03
12781;BME280;6454;43.304;24.344;2022-07-01T10:07:09;100124.03;;;34.65;33.82
12781;BME280;6454;43.304;24.344;2022-07-01T10:09:52;100119.31;;;34.62;32.79
12781;BME280;6454;43.304;24.344;2022-07-01T10:12:37;100115.13;;;34.66;32.25
12781;BME280;6454;43.304;24.344;2022-07-01T10:15:07;100117.88;;;34.28;32.57
12781;BME280;6454;43.304;24.344;2022-07-01T10:17:36;100123.41;;;34.32;32.67
12781;BME280;6454;43.304;24.344;2022-07-01T10:20:08;100125.75;;;34.21;31.65
12781;BME280;6454;43.304;24.344;2022-07-01T10:22:38;100102.47;;;34.20;33.72
12781;BME280;6454;43.304;24.344;2022-07-01T10:25:39;100110.91;;;34.46;34.49
12781;BME280;6454;43.304;24.344;2022-07-01T10:28:18;100109.91;;;34.52;33.16
12781;BME280;6454;43.304;24.344;2022-07-01T10:30:56;100102.63;;;34.55;30.09
12781;BME280;6454;43.304;24.344;2022-07-01T10:33:39;100096.53;;;34.56;30.99
12781;BME280;6454;43.304;24.344;2022-07-01T10:36:12;100079.19;;;34.58;31.68
12781;BME280;6454;43.304;24.344;2022-07-01T10:39:12;100091.56;;;34.73;33.70
12781;BME280;6454;43.304;24.344;2022-07-01T10:41:41;100094.94;;;34.80;32.07
12781;BME280;6454;43.304;24.344;2022-07-01T10:44:10;100090.53;;;34.92;32.95
12781;BME280;6454;43.304;24.344;2022-07-01T10:46:39;100077.78;;;35.00;32.68
12781;BME280;6454;43.304;24.344;2022-07-01T10:49:10;100066.72;;;34.93;33.86
12781;BME280;6454;43.304;24.344;2022-07-01T10:51:49;100080.47;;;35.16;34.78
12781;BME280;6454;43.304;24.344;2022-07-01T10:54:46;100073.66;;;35.26;34.91
12781;BME280;6454;43.304;24.344;2022-07-01T10:57:34;100068.69;;;35.30;35.18
12781;BME280;6454;43.304;24.344;2022-07-01T11:00:30;100069.44;;;35.43;34.81
12781;BME280;6454;43.304;24.344;2022-07-01T11:03:09;100066.34;;;35.50;34.11
12781;BME280;6454;43.304;24.344;2022-07-01T11:41:53;100055.56;;;35.71;31.72
12781;BME280;6454;43.304;24.344;2022-07-01T11:44:32;99994.31;;;35.37;31.05
12781;BME280;6454;43.304;24.344;2022-07-01T11:46:59;100045.59;;;35.79;30.97
12781;BME280;6454;43.304;24.344;2022-07-01T11:49:26;100042.03;;;35.66;30.42
12781;BME280;6454;43.304;24.344;2022-07-01T11:51:57;100035.91;;;35.45;30.93
12781;BME280;6454;43.304;24.344;2022-07-01T11:54:25;100029.72;;;35.38;31.31
12781;BME280;6454;43.304;24.344;2022-07-01T11:56:53;100029.59;;;35.41;31.36
12781;BME280;6454;43.304;24.344;2022-07-01T11:59:20;100024.13;;;35.60;31.06
12781;BME280;6454;43.304;24.344;2022-07-01T12:01:51;100027.06;;;35.78;31.46
12781;BME280;6454;43.304;24.344;2022-07-01T12:04:19;100025.50;;;35.77;29.76
12781;BME280;6454;43.304;24.344;2022-07-01T12:06:46;100008.50;;;35.68;31.44
12781;BME280;6454;43.304;24.344;2022-07-01T12:09:14;100015.16;;;35.83;29.16
12781;BME280;6454;43.304;24.344;2022-07-01T12:11:44;100022.00;;;35.73;27.90
12781;BME280;6454;43.304;24.344;2022-07-01T12:14:19;100021.06;;;35.67;28.57
12781;BME280;6454;43.304;24.344;2022-07-01T12:16:46;100022.00;;;35.73;27.36
12781;BME280;6454;43.304;24.344;2022-07-01T12:19:13;100018.97;;;35.89;26.38
12781;BME280;6454;43.304;24.344;2022-07-01T12:21:51;100007.31;;;35.99;27.35
12781;BME280;6454;43.304;24.344;2022-07-01T12:24:19;100015.31;;;36.01;28.57
12781;BME280;6454;43.304;24.344;2022-07-01T12:26:50;100006.25;;;36.06;28.54
12781;BME280;6454;43.304;24.344;2022-07-01T12:29:20;100000.16;;;36.07;28.01
12781;BME280;6454;43.304;24.344;2022-07-01T12:31:55;99986.94;;;36.04;28.55
12781;BME280;6454;43.304;24.344;2022-07-01T12:34:22;99996.56;;;36.16;29.14
12781;BME280;6454;43.304;24.344;2022-07-01T12:36:50;99988.06;;;36.07;27.86
12781;BME280;6454;43.304;24.344;2022-07-01T12:39:17;99991.66;;;36.07;28.88
12781;BME280;6454;43.304;24.344;2022-07-01T12:41:50;99989.78;;;36.04;28.90
12781;BME280;6454;43.304;24.344;2022-07-01T12:44:22;99986.03;;;36.07;28.62
12781;BME280;6454;43.304;24.344;2022-07-01T12:46:50;99964.19;;;36.08;27.64
12781;BME280;6454;43.304;24.344;2022-07-01T12:49:21;99987.66;;;36.27;29.09
12781;BME280;6454;43.304;24.344;2022-07-01T12:51:48;99966.72;;;36.15;28.12
12781;BME280;6454;43.304;24.344;2022-07-01T12:54:29;99987.22;;;36.37;28.05
12781;BME280;6454;43.304;24.344;2022-07-01T13:40:55;99951.56;;;36.22;27.74
12781;BME280;6454;43.304;24.344;2022-07-01T14:53:58;99937.84;;;36.02;30.11
12781;BME280;6454;43.304;24.344;2022-07-01T14:56:25;99933.06;;;35.90;30.45
12781;BME280;6454;43.304;24.344;2022-07-01T14:58:52;99925.97;;;35.85;33.23
12781;BME280;6454;43.304;24.344;2022-07-01T15:01:19;99929.28;;;35.93;33.36
12781;BME280;6454;43.304;24.344;2022-07-01T15:03:46;99934.31;;;35.98;32.78
12781;BME280;6454;43.304;24.344;2022-07-01T15:06:13;99924.63;;;35.99;33.10
12781;BME280;6454;43.304;24.344;2022-07-01T15:08:39;99922.41;;;35.94;31.26
12781;BME280;6454;43.304;24.344;2022-07-01T15:11:09;99927.41;;;35.90;32.20
12781;BME280;6454;43.304;24.344;2022-07-01T15:13:36;99919.47;;;35.76;34.51
12781;BME280;6454;43.304;24.344;2022-07-01T15:16:04;99922.28;;;35.67;34.65
12781;BME280;6454;43.304;24.344;2022-07-01T15:18:31;99920.66;;;35.56;34.67
12781;BME280;6454;43.304;24.344;2022-07-01T15:20:59;99922.28;;;35.45;35.73
12781;BME280;6454;43.304;24.344;2022-07-01T15:23:26;99924.25;;;35.35;36.18
12781;BME280;6454;43.304;24.344;2022-07-01T15:25:53;99920.19;;;35.36;35.12
12781;BME280;6454;43.304;24.344;2022-07-01T15:28:22;99921.44;;;35.35;35.48
12781;BME280;6454;43.304;24.344;2022-07-01T15:30:50;99914.59;;;35.45;35.38
12781;BME280;6454;43.304;24.344;2022-07-01T15:33:17;99902.06;;;35.46;33.01
12781;BME280;6454;43.304;24.344;2022-07-01T15:35:44;99920.19;;;35.58;32.44
12781;BME280;6454;43.304;24.344;2022-07-01T15:38:10;99924.63;;;35.68;32.56
12781;BME280;6454;43.304;24.344;2022-07-01T15:40:37;99919.16;;;35.74;31.76
12781;BME280;6454;43.304;24.344;2022-07-01T15:43:06;99923.28;;;35.82;32.11
12781;BME280;6454;43.304;24.344;2022-07-01T15:45:34;99927.56;;;35.95;31.58
12781;BME280;6454;43.304;24.344;2022-07-01T15:48:01;99922.25;;;35.97;31.01
12781;BME280;6454;43.304;24.344;2022-07-01T15:50:37;99918.38;;;36.04;30.65
12781;BME280;6454;43.304;24.344;2022-07-01T15:53:04;99922.19;;;36.10;30.55
12781;BME280;6454;43.304;24.344;2022-07-01T15:55:32;99921.38;;;36.09;30.55
12781;BME280;6454;43.304;24.344;2022-07-01T15:58:01;99930.00;;;36.06;29.76
12781;BME280;6454;43.304;24.344;2022-07-01T16:00:28;99929.28;;;35.93;30.54
12781;BME280;6454;43.304;24.344;2022-07-01T16:02:57;99925.91;;;35.76;33.18
12781;BME280;6454;43.304;24.344;2022-07-01T16:05:25;99930.78;;;35.76;36.11
12781;BME280;6454;43.304;24.344;2022-07-01T16:07:57;99928.56;;;35.71;34.92
12781;BME280;6454;43.304;24.344;2022-07-01T16:10:41;99924.78;;;35.65;32.38
12781;BME280;6454;43.304;24.344;2022-07-01T16:13:11;99930.41;;;35.65;33.84
12781;BME280;6454;43.304;24.344;2022-07-01T16:15:39;99929.16;;;35.66;34.05
12781;BME280;6454;43.304;24.344;2022-07-01T16:18:10;99929.03;;;35.69;32.87
12781;BME280;6454;43.304;24.344;2022-07-01T16:20:42;99933.41;;;35.70;33.53
12781;BME280;6454;43.304;24.344;2022-07-01T16:23:13;99933.88;;;35.69;33.81
12781;BME280;6454;43.304;24.344;2022-07-01T16:25:40;99929.94;;;35.66;34.03
12781;BME280;6454;43.304;24.344;2022-07-01T16:28:08;99931.06;;;35.69;33.54
12781;BME280;6454;43.304;24.344;2022-07-01T16:30:37;99934.81;;;35.66;33.84
12781;BME280;6454;43.304;24.344;2022-07-01T16:33:05;99930.75;;;35.67;34.36
12781;BME280;6454;43.304;24.344;2022-07-01T16:35:40;99929.94;;;35.66;34.25
12781;BME280;6454;43.304;24.344;2022-07-01T16:38:09;99932.66;;;35.70;34.12
12781;BME280;6454;43.304;24.344;2022-07-01T16:40:37;99942.81;;;35.67;34.54
12781;BME280;6454;43.304;24.344;2022-07-01T16:43:05;99940.75;;;35.68;35.17
12781;BME280;6454;43.304;24.344;2022-07-01T16:45:37;99938.41;;;35.66;35.20
12781;BME280;6454;43.304;24.344;2022-07-01T16:48:05;99943.53;;;35.58;36.75
12781;BME280;6454;43.304;24.344;2022-07-01T16:50:38;99945.63;;;35.45;37.22
12781;BME280;6454;43.304;24.344;2022-07-01T16:53:13;99960.34;;;35.19;35.65
12781;BME280;6454;43.304;24.344;2022-07-01T16:55:43;99963.91;;;34.97;35.92
12781;BME280;6454;43.304;24.344;2022-07-01T16:58:19;99968.00;;;34.84;36.00
12781;BME280;6454;43.304;24.344;2022-07-01T17:00:46;99976.25;;;34.66;36.34
12781;BME280;6454;43.304;24.344;2022-07-01T17:03:14;99981.88;;;34.53;36.69
12781;BME280;6454;43.304;24.344;2022-07-01T17:05:42;99973.47;;;34.28;36.71
12781;BME280;6454;43.304;24.344;2022-07-01T17:08:10;99978.31;;;34.02;37.17
12781;BME280;6454;43.304;24.344;2022-07-01T17:10:41;99983.59;;;33.88;37.77
12781;BME280;6454;43.304;24.344;2022-07-01T17:13:10;99980.75;;;33.75;38.14
12781;BME280;6454;43.304;24.344;2022-07-01T17:15:37;99984.78;;;33.61;38.42
12781;BME280;6454;43.304;24.344;2022-07-01T17:18:04;99987.44;;;33.52;38.97
12781;BME280;6454;43.304;24.344;2022-07-01T17:20:32;99990.88;;;33.44;39.18
12781;BME280;6454;43.304;24.344;2022-07-01T17:23:06;99996.78;;;33.21;39.53
12781;BME280;6454;43.304;24.344;2022-07-01T17:25:37;99999.63;;;33.04;39.42
12781;BME280;6454;43.304;24.344;2022-07-01T17:28:36;100000.16;;;32.83;40.11
12781;BME280;6454;43.304;24.344;2022-07-01T17:31:14;100008.41;;;32.74;40.85
12781;BME280;6454;43.304;24.344;2022-07-01T17:33:44;100003.16;;;32.60;41.34
12781;BME280;6454;43.304;24.344;2022-07-01T17:36:13;99999.44;;;32.47;41.67
12781;BME280;6454;43.304;24.344;2022-07-01T17:38:44;100007.69;;;32.38;42.35
12781;BME280;6454;43.304;24.344;2022-07-01T17:41:15;100003.81;;;32.32;43.12
12781;BME280;6454;43.304;24.344;2022-07-01T17:43:43;100019.69;;;32.22;43.94
12781;BME280;6454;43.304;24.344;2022-07-01T17:46:11;100012.66;;;31.95;43.63
12781;BME280;6454;43.304;24.344;2022-07-01T17:48:39;100033.63;;;31.70;42.96
12781;BME280;6454;43.304;24.344;2022-07-01T17:51:05;100028.44;;;31.49;43.34
12781;BME280;6454;43.304;24.344;2022-07-01T17:53:34;100026.78;;;31.52;43.88
12781;BME280;6454;43.304;24.344;2022-07-01T17:56:04;100035.13;;;31.55;43.78
12781;BME280;6454;43.304;24.344;2022-07-01T17:58:32;100022.22;;;31.38;45.87
12781;BME280;6454;43.304;24.344;2022-07-01T18:01:01;100024.50;;;31.23;46.01
12781;BME280;6454;43.304;24.344;2022-07-01T18:03:28;100016.44;;;31.06;46.91
12781;BME280;6454;43.304;24.344;2022-07-01T18:05:56;100025.19;;;31.08;47.20
12781;BME280;6454;43.304;24.344;2022-07-01T18:08:23;100025.25;;;31.04;47.15
12781;BME280;6454;43.304;24.344;2022-07-01T18:10:56;100019.88;;;30.94;47.69
12781;BME280;6454;43.304;24.344;2022-07-01T18:16:53;100020.50;;;30.78;48.56
12781;BME280;6454;43.304;24.344;2022-07-01T18:19:32;100023.09;;;30.66;49.32
12781;BME280;6454;43.304;24.344;2022-07-01T18:22:04;100017.00;;;30.47;50.89
12781;BME280;6454;43.304;24.344;2022-07-01T18:24:35;100020.00;;;30.33;51.62
12781;BME280;6454;43.304;24.344;2022-07-01T18:27:05;100024.16;;;30.22;52.05
12781;BME280;6454;43.304;24.344;2022-07-01T18:29:35;100023.94;;;30.09;52.69
12781;BME280;6454;43.304;24.344;2022-07-01T18:32:06;100012.22;;;29.91;53.09
12781;BME280;6454;43.304;24.344;2022-07-01T18:34:42;100029.13;;;29.80;53.82
12781;BME280;6454;43.304;24.344;2022-07-01T18:37:11;100033.56;;;29.74;53.60
12781;BME280;6454;43.304;24.344;2022-07-01T18:39:39;100039.56;;;29.73;53.85
12781;BME280;6454;43.304;24.344;2022-07-01T18:42:06;100044.03;;;29.67;54.56
12781;BME280;6454;43.304;24.344;2022-07-01T18:44:34;100053.75;;;29.55;54.84
12781;BME280;6454;43.304;24.344;2022-07-01T18:47:01;100088.66;;;29.44;54.42
12781;BME280;6454;43.304;24.344;2022-07-01T18:49:29;100087.91;;;29.36;53.04
12781;BME280;6454;43.304;24.344;2022-07-01T18:51:58;100089.47;;;29.41;50.25
12781;BME280;6454;43.304;24.344;2022-07-01T18:54:25;100082.72;;;29.34;51.11
12781;BME280;6454;43.304;24.344;2022-07-01T18:56:52;100084.47;;;29.18;52.22
12781;BME280;6454;43.304;24.344;2022-07-01T18:59:19;100099.19;;;29.29;51.73
12781;BME280;6454;43.304;24.344;2022-07-01T19:01:47;100107.50;;;29.32;52.50
12781;BME280;6454;43.304;24.344;2022-07-01T19:04:14;100080.88;;;29.17;53.42
12781;BME280;6454;43.304;24.344;2022-07-01T19:06:41;100095.56;;;29.28;55.00
12781;BME280;6454;43.304;24.344;2022-07-01T19:09:09;100099.22;;;29.22;54.93
12781;BME280;6454;43.304;24.344;2022-07-01T19:11:35;100093.28;;;29.13;55.44
12781;BME280;6454;43.304;24.344;2022-07-01T19:14:02;100095.72;;;29.11;55.67
12781;BME280;6454;43.304;24.344;2022-07-01T19:16:29;100093.00;;;29.04;56.64
12781;BME280;6454;43.304;24.344;2022-07-01T19:18:57;100093.88;;;28.90;56.75
12781;BME280;6454;43.304;24.344;2022-07-01T19:21:24;100091.16;;;28.80;56.98
12781;BME280;6454;43.304;24.344;2022-07-01T19:23:51;100078.53;;;28.64;57.68
12781;BME280;6454;43.304;24.344;2022-07-01T19:26:18;100079.34;;;28.58;58.26
12781;BME280;6454;43.304;24.344;2022-07-01T19:28:46;100080.13;;;28.62;58.38
12781;BME280;6454;43.304;24.344;2022-07-01T19:31:13;100077.78;;;28.57;57.81
12781;BME280;6454;43.304;24.344;2022-07-01T19:33:40;100078.22;;;28.52;57.95
12781;BME280;6454;43.304;24.344;2022-07-01T19:36:08;100082.63;;;28.46;58.15
12781;BME280;6454;43.304;24.344;2022-07-01T19:38:35;100090.66;;;28.37;58.24
12781;BME280;6454;43.304;24.344;2022-07-01T19:41:02;100090.72;;;28.26;59.69
12781;BME280;6454;43.304;24.344;2022-07-01T19:43:29;100093.16;;;28.14;60.30
12781;BME280;6454;43.304;24.344;2022-07-01T19:45:56;100089.19;;;28.07;60.09
12781;BME280;6454;43.304;24.344;2022-07-01T19:48:26;100084.47;;;28.04;59.92
12781;BME280;6454;43.304;24.344;2022-07-01T19:50:53;100085.25;;;28.01;59.82
12781;BME280;6454;43.304;24.344;2022-07-01T19:53:21;100086.06;;;27.91;59.83
12781;BME280;6454;43.304;24.344;2022-07-01T19:55:48;100084.13;;;27.81;60.30
12781;BME280;6454;43.304;24.344;2022-07-01T19:58:15;100087.38;;;27.62;61.13
12781;BME280;6454;43.304;24.344;2022-07-01T20:00:43;100073.44;;;27.59;60.77
12781;BME280;6454;43.304;24.344;2022-07-01T20:03:10;100086.97;;;27.64;60.68
12781;BME280;6454;43.304;24.344;2022-07-01T20:05:37;100073.44;;;27.55;61.69
12781;BME280;6454;43.304;24.344;2022-07-01T20:08:04;100076.63;;;27.50;62.22
12781;BME280;6454;43.304;24.344;2022-07-01T20:10:32;100081.03;;;27.40;62.41
12781;BME280;6454;43.304;24.344;2022-07-01T20:12:59;100087.41;;;27.27;62.73
12781;BME280;6454;43.304;24.344;2022-07-01T20:15:26;100096.56;;;27.31;63.06
12781;BME280;6454;43.304;24.344;2022-07-01T20:17:54;100087.41;;;27.13;63.52
12781;BME280;6454;43.304;24.344;2022-07-01T20:20:21;100092.59;;;27.04;63.66
12781;BME280;6454;43.304;24.344;2022-07-01T20:22:48;100090.63;;;26.94;64.16
12781;BME280;6454;43.304;24.344;2022-07-01T20:25:15;100087.44;;;26.88;64.48
12781;BME280;6454;43.304;24.344;2022-07-01T20:27:43;100086.63;;;26.80;64.71
12781;BME280;6454;43.304;24.344;2022-07-01T20:30:10;100094.19;;;26.76;65.08
12781;BME280;6454;43.304;24.344;2022-07-01T20:32:37;100098.50;;;26.70;65.24
12781;BME280;6454;43.304;24.344;2022-07-01T20:35:05;100098.91;;;26.65;65.50
12781;BME280;6454;43.304;24.344;2022-07-01T20:37:31;100100.91;;;26.54;66.54
12781;BME280;6454;43.304;24.344;2022-07-01T20:39:58;100104.47;;;26.51;66.65
12781;BME280;6454;43.304;24.344;2022-07-01T20:42:25;100119.56;;;26.47;66.83
12781;BME280;6454;43.304;24.344;2022-07-01T20:44:54;100126.25;;;26.35;67.11
12781;BME280;6454;43.304;24.344;2022-07-01T20:47:21;100117.53;;;26.30;67.25
12781;BME280;6454;43.304;24.344;2022-07-01T20:49:48;100120.69;;;26.25;67.23
12781;BME280;6454;43.304;24.344;2022-07-01T20:52:15;100126.59;;;26.12;67.99
12781;BME280;6454;43.304;24.344;2022-07-01T20:54:42;100124.53;;;26.06;68.22
12781;BME280;6454;43.304;24.344;2022-07-01T20:57:09;100128.47;;;25.98;68.57
12781;BME280;6454;43.304;24.344;2022-07-01T20:59:36;100128.47;;;25.94;68.94
12781;BME280;6454;43.304;24.344;2022-07-01T21:02:04;100130.41;;;25.87;69.48
12781;BME280;6454;43.304;24.344;2022-07-01T21:04:31;100119.28;;;25.83;69.42
12781;BME280;6454;43.304;24.344;2022-07-01T21:06:58;100123.59;;;25.74;69.80
12781;BME280;6454;43.304;24.344;2022-07-01T21:09:25;100114.84;;;25.72;70.04